createdAt,value
2022-08-26T00:01:29.676Z,21.35
2022-08-26T00:04:00.073Z,7.05
2022-08-26T00:06:28.256Z,14.50
2022-08-26T00:08:56.917Z,11.75
2022-08-26T00:11:26.278Z,14.48
2022-08-26T00:13:57.623Z,9.23
2022-08-26T00:16:28.685Z,12.10
2022-08-26T00:18:57.620Z,13.90
2022-08-26T00:21:26.936Z,12.93
2022-08-26T00:23:55.747Z,10.98
2022-08-26T00:26:24.852Z,9.63
2022-08-26T00:28:57.912Z,16.88
2022-08-26T00:31:26.587Z,13.80
2022-08-26T00:33:55.358Z,14.68
2022-08-26T00:36:25.311Z,16.23
2022-08-26T00:39:01.914Z,24.35
2022-08-26T00:41:31.169Z,26.25
2022-08-26T00:43:59.767Z,29.92
2022-08-26T00:46:38.971Z,22.05
2022-08-26T00:49:40.189Z,26.73
2022-08-26T00:52:13.938Z,23.77
2022-08-26T00:54:51.016Z,19.35
2022-08-26T00:57:21.433Z,16.45
2022-08-26T00:59:56.235Z,15.48
2022-08-26T01:02:25.605Z,12.90
2022-08-26T01:04:57.579Z,13.18
2022-08-26T01:07:30.197Z,9.35
2022-08-26T01:10:02.761Z,9.50
2022-08-26T01:12:40.321Z,18.08
2022-08-26T01:15:11.383Z,20.65
2022-08-26T01:17:40.873Z,11.65
2022-08-26T01:20:23.033Z,10.18
2022-08-26T01:23:13.134Z,10.07
2022-08-26T01:25:45.804Z,15.20
2022-08-26T01:28:24.373Z,11.45
2022-08-26T01:30:55.447Z,12.07
2022-08-26T01:33:42.406Z,9.05
2022-08-26T01:36:12.382Z,15.57
2022-08-26T01:38:41.954Z,12.60
2022-08-26T01:41:19.947Z,19.33
2022-08-26T01:43:58.055Z,11.40
2022-08-26T01:46:29.199Z,17.38
2022-08-26T01:49:01.732Z,12.75
2022-08-26T01:51:33.121Z,26.67
2022-08-26T01:54:02.269Z,10.43
2022-08-26T01:56:33.079Z,10.82
2022-08-26T01:59:06.879Z,14.55
2022-08-26T02:01:38.906Z,11.23
2022-08-26T02:04:22.348Z,14.95
2022-08-26T02:06:51.321Z,13.55
2022-08-26T02:09:21.409Z,14.73
2022-08-26T02:11:51.115Z,18.88
2022-08-26T02:14:31.513Z,18.05
2022-08-26T02:17:00.694Z,9.65
2022-08-26T02:19:33.133Z,14.23
2022-08-26T02:22:05.638Z,17.50
2022-08-26T02:24:51.011Z,12.77
2022-08-26T02:27:23.724Z,11.65
2022-08-26T02:30:00.390Z,9.30
2022-08-26T02:32:29.948Z,15.07
2022-08-26T02:34:58.623Z,15.73
2022-08-26T02:37:32.109Z,12.25
2022-08-26T02:40:03.499Z,7.78
2022-08-26T02:42:32.229Z,9.27
2022-08-26T02:45:01.414Z,8.38
2022-08-26T02:47:30.297Z,11.82
2022-08-26T02:50:01.707Z,12.70
2022-08-26T02:52:30.173Z,13.00
2022-08-26T02:55:00.142Z,12.80
2022-08-26T02:57:28.627Z,22.77
2022-08-26T02:59:57.060Z,32.45
2022-08-26T03:02:30.116Z,32.13
2022-08-26T03:05:02.069Z,39.20
2022-08-26T03:07:31.776Z,38.47
2022-08-26T03:10:00.957Z,34.47
2022-08-26T03:12:30.259Z,37.53
2022-08-26T03:14:58.964Z,46.83
2022-08-26T03:17:27.668Z,49.58
2022-08-26T03:19:57.360Z,59.15
2022-08-26T03:22:27.479Z,60.28
2022-08-26T03:24:56.313Z,65.32
2022-08-26T03:27:24.915Z,64.72
2022-08-26T03:30:12.028Z,68.82
2022-08-26T03:32:41.562Z,51.03
2022-08-26T03:35:10.878Z,48.63
2022-08-26T03:37:40.070Z,19.55
2022-08-26T03:40:11.776Z,14.43
2022-08-26T03:42:44.404Z,19.50
2022-08-26T03:45:16.370Z,21.95
2022-08-26T03:47:46.014Z,15.65
2022-08-26T03:50:18.210Z,18.50
2022-08-26T03:52:53.928Z,12.77
2022-08-26T03:55:25.819Z,16.35
2022-08-26T03:57:56.249Z,16.92
2022-08-26T04:00:25.144Z,12.18
2022-08-26T04:02:54.301Z,20.65
2022-08-26T04:05:23.995Z,21.45
2022-08-26T04:07:53.503Z,17.70
2022-08-26T04:10:29.550Z,26.02
2022-08-26T04:12:59.495Z,13.80
2022-08-26T04:15:28.868Z,26.08
2022-08-26T04:17:57.682Z,19.95
2022-08-26T04:20:27.074Z,18.52
2022-08-26T04:22:55.519Z,29.55
2022-08-26T04:25:24.396Z,20.65
2022-08-26T04:27:53.541Z,21.90
2022-08-26T04:30:22.616Z,20.88
2022-08-26T04:32:51.785Z,18.23
2022-08-26T04:35:25.739Z,16.40
2022-08-26T04:37:54.973Z,24.55
2022-08-26T04:40:23.545Z,21.80
2022-08-26T04:42:52.580Z,23.70
2022-08-26T04:45:22.604Z,25.30
2022-08-26T04:47:57.607Z,17.20
2022-08-26T04:50:26.803Z,23.60
2022-08-26T04:52:56.630Z,16.65
2022-08-26T04:55:39.843Z,10.77
2022-08-26T04:58:15.547Z,12.23
2022-08-26T05:00:46.341Z,27.85
2022-08-26T05:03:15.351Z,18.48
2022-08-26T05:05:46.528Z,17.10
2022-08-26T05:08:16.723Z,27.60
2022-08-26T05:10:49.667Z,21.73
2022-08-26T05:13:20.896Z,15.13
2022-08-26T05:15:50.708Z,11.20
2022-08-26T05:18:22.803Z,9.68
2022-08-26T05:20:55.293Z,18.85
2022-08-26T05:23:25.631Z,12.98
2022-08-26T05:25:59.268Z,18.48
2022-08-26T05:28:30.939Z,21.92
2022-08-26T05:30:59.022Z,15.27
2022-08-26T05:33:27.758Z,14.52
2022-08-26T05:35:56.427Z,16.55
2022-08-26T05:38:25.304Z,16.85
2022-08-26T05:40:59.035Z,19.85
2022-08-26T05:43:27.980Z,17.73
2022-08-26T05:45:57.737Z,15.20
2022-08-26T05:48:26.393Z,9.40
2022-08-26T05:50:55.508Z,19.67
2022-08-26T05:53:26.050Z,17.77
2022-08-26T05:55:56.695Z,18.48
2022-08-26T05:58:28.248Z,17.87
2022-08-26T06:01:02.243Z,12.43
2022-08-26T06:03:33.456Z,19.60
2022-08-26T06:06:20.227Z,15.60
2022-08-26T06:08:56.925Z,15.07
2022-08-26T06:11:27.738Z,27.08
2022-08-26T06:14:03.642Z,17.30
2022-08-26T06:16:40.916Z,18.65
2022-08-26T06:19:11.706Z,12.45
2022-08-26T06:21:42.910Z,16.13
2022-08-26T06:24:32.022Z,11.95
2022-08-26T06:27:03.865Z,19.15
2022-08-26T06:29:37.631Z,10.35
2022-08-26T06:32:06.768Z,11.93
2022-08-26T06:34:35.575Z,16.60
2022-08-26T06:37:04.739Z,12.48
2022-08-26T06:39:35.443Z,11.73
2022-08-26T06:42:08.927Z,15.90
2022-08-26T06:44:40.991Z,11.85
2022-08-26T06:47:10.033Z,19.30
2022-08-26T06:49:38.429Z,15.70
2022-08-26T06:52:08.477Z,13.50
2022-08-26T06:54:38.796Z,10.20
2022-08-26T06:57:07.641Z,10.23
2022-08-26T06:59:36.416Z,13.00
2022-08-26T07:02:06.512Z,15.23
2022-08-26T07:04:37.047Z,18.35
2022-08-26T07:07:05.715Z,10.50
2022-08-26T07:09:38.805Z,12.38
2022-08-26T07:12:08.694Z,13.82
2022-08-26T07:14:38.625Z,12.05
2022-08-26T07:17:12.206Z,7.93
2022-08-26T07:19:42.519Z,16.17
2022-08-26T07:22:11.364Z,8.60
2022-08-26T07:24:44.700Z,15.95
2022-08-26T07:27:17.369Z,11.15
2022-08-26T07:29:45.644Z,14.65
2022-08-26T07:32:16.841Z,12.40
2022-08-26T07:34:46.714Z,8.68
2022-08-26T07:37:15.770Z,12.73
2022-08-26T07:39:46.624Z,9.43
2022-08-26T07:42:18.844Z,7.13
2022-08-26T07:44:48.569Z,8.52
2022-08-26T07:47:25.405Z,15.60
2022-08-26T07:49:56.797Z,14.48
2022-08-26T07:52:27.526Z,13.35
2022-08-26T07:54:58.762Z,18.85
2022-08-26T07:57:28.226Z,12.52
2022-08-26T07:59:57.654Z,10.60
2022-08-26T08:02:27.589Z,22.92
2022-08-26T08:04:58.146Z,10.07
2022-08-26T08:07:38.772Z,12.32
2022-08-26T08:10:22.324Z,18.38
2022-08-26T08:12:54.558Z,26.42
2022-08-26T08:15:27.830Z,12.13
2022-08-26T08:18:00.213Z,14.10
2022-08-26T08:20:29.883Z,12.63
2022-08-26T08:22:58.757Z,12.05
2022-08-26T08:25:27.141Z,15.35
2022-08-26T08:27:55.544Z,15.63
2022-08-26T08:30:25.794Z,16.23
2022-08-26T08:32:55.051Z,10.43
2022-08-26T08:35:25.444Z,7.55
2022-08-26T08:37:56.127Z,14.98
2022-08-26T08:40:27.898Z,8.68
2022-08-26T08:43:09.420Z,12.45
2022-08-26T08:45:49.631Z,12.48
2022-08-26T08:48:43.450Z,15.57
2022-08-26T08:51:15.353Z,18.27
2022-08-26T08:53:50.730Z,10.43
2022-08-26T08:56:33.508Z,11.55
2022-08-26T08:59:32.855Z,17.98
2022-08-26T09:02:12.000Z,11.52
2022-08-26T09:05:00.000Z,17.73
2022-08-26T09:07:43.256Z,16.77
2022-08-26T09:10:51.164Z,22.27
2022-08-26T09:13:25.139Z,17.50
2022-08-26T09:15:54.912Z,17.33
2022-08-26T09:18:49.237Z,13.35
2022-08-26T09:21:20.224Z,17.17
2022-08-26T09:23:53.304Z,10.57
2022-08-26T09:26:30.650Z,12.73
2022-08-26T09:29:02.712Z,12.68
2022-08-26T09:31:35.543Z,25.45
2022-08-26T09:36:41.120Z,12.02
2022-08-26T09:39:29.523Z,19.92
2022-08-26T09:42:36.034Z,11.85
2022-08-26T09:45:11.504Z,14.02
2022-08-26T09:47:55.771Z,22.73
2022-08-26T09:50:38.099Z,27.75
2022-08-26T09:53:28.758Z,17.92
2022-08-26T09:56:23.067Z,9.95
2022-08-26T09:58:52.184Z,14.05
2022-08-26T10:01:37.042Z,19.05
2022-08-26T10:04:16.180Z,19.00
2022-08-26T10:07:09.502Z,16.75
2022-08-26T10:09:44.417Z,15.02
2022-08-26T10:12:18.908Z,13.25
2022-08-26T10:14:51.080Z,21.60
2022-08-26T10:17:45.986Z,10.80
2022-08-26T10:20:24.094Z,16.33
2022-08-26T10:23:04.084Z,19.35
2022-08-26T10:26:00.109Z,14.70
2022-08-26T10:28:45.249Z,19.88
2022-08-26T10:31:28.159Z,17.08
2022-08-26T10:37:14.785Z,19.92
2022-08-26T10:39:58.771Z,15.38
2022-08-26T10:42:47.965Z,13.25
2022-08-26T10:45:23.205Z,12.77
2022-08-26T10:48:18.976Z,14.85
2022-08-26T10:50:50.947Z,11.25
2022-08-26T10:53:32.703Z,12.88
2022-08-26T10:56:34.649Z,16.35
2022-08-26T10:59:12.482Z,10.50
2022-08-26T11:02:04.150Z,14.23
2022-08-26T11:04:47.712Z,16.20
2022-08-26T11:07:41.794Z,12.50
2022-08-26T11:10:22.419Z,16.48
2022-08-26T11:12:53.337Z,7.80
2022-08-26T11:15:24.551Z,16.38
2022-08-26T11:17:53.588Z,13.43
2022-08-26T11:20:25.211Z,12.20
2022-08-26T11:23:17.758Z,13.98
2022-08-26T11:25:58.458Z,7.87
2022-08-26T11:28:49.805Z,15.85
2022-08-26T11:31:27.380Z,17.75
2022-08-26T11:33:59.586Z,21.98
2022-08-26T11:36:50.427Z,21.95
2022-08-26T11:39:25.784Z,13.07
2022-08-26T11:41:57.810Z,15.77
2022-08-26T11:44:30.714Z,20.17
2022-08-26T11:47:02.561Z,19.17
2022-08-26T11:49:34.259Z,14.02
2022-08-26T11:52:24.070Z,14.10
2022-08-26T11:55:15.675Z,24.70
2022-08-26T11:57:51.839Z,16.92
2022-08-26T12:00:23.475Z,16.85
2022-08-26T12:02:53.480Z,18.75
2022-08-26T12:05:32.597Z,11.77
2022-08-26T12:08:10.592Z,12.15
2022-08-26T12:10:40.024Z,13.10
2022-08-26T12:13:09.952Z,14.27
2022-08-26T12:15:39.095Z,12.52
2022-08-26T12:18:29.706Z,15.68
2022-08-26T12:21:01.927Z,15.85
2022-08-26T12:23:45.236Z,23.63
2022-08-26T12:26:26.303Z,21.98
2022-08-26T12:29:13.186Z,12.45
2022-08-26T12:31:50.099Z,21.83
2022-08-26T12:34:19.487Z,18.27
2022-08-26T12:36:55.505Z,23.42
2022-08-26T12:39:37.028Z,18.85
2022-08-26T12:42:24.033Z,19.50
2022-08-26T12:45:00.915Z,15.18
2022-08-26T12:47:42.377Z,18.58
2022-08-26T12:50:25.268Z,14.48
2022-08-26T12:53:06.126Z,18.23
2022-08-26T12:55:34.689Z,12.90
2022-08-26T12:58:18.372Z,14.88
2022-08-26T13:00:49.929Z,14.95
2022-08-26T13:03:39.073Z,21.48
2022-08-26T13:06:19.301Z,15.70
2022-08-26T13:09:02.073Z,26.92
2022-08-26T13:11:33.167Z,24.33
2022-08-26T13:14:21.038Z,12.15
2022-08-26T13:16:54.331Z,19.33
2022-08-26T13:19:26.488Z,17.77
2022-08-26T13:21:58.454Z,18.57
2022-08-26T13:24:37.886Z,20.38
2022-08-26T13:27:08.673Z,20.20
2022-08-26T13:29:37.106Z,22.40
2022-08-26T13:32:07.447Z,19.00
2022-08-26T13:34:38.305Z,39.20
2022-08-26T13:37:07.615Z,18.75
2022-08-26T13:39:36.279Z,14.35
2022-08-26T13:42:04.991Z,14.05
2022-08-26T13:44:33.928Z,24.17
2022-08-26T13:47:03.231Z,16.67
2022-08-26T13:49:35.450Z,18.25
2022-08-26T13:52:04.953Z,14.20
2022-08-26T13:54:33.540Z,18.23
2022-08-26T13:57:02.244Z,17.90
2022-08-26T13:59:30.870Z,21.23
2022-08-26T14:01:59.539Z,19.67
2022-08-26T14:04:28.513Z,19.98
2022-08-26T14:06:57.145Z,24.02
2022-08-26T14:09:26.164Z,31.05
2022-08-26T14:11:55.150Z,32.67
2022-08-26T14:14:24.059Z,14.35
2022-08-26T14:17:00.101Z,15.60
2022-08-26T14:19:31.391Z,29.38
2022-08-26T14:22:01.593Z,23.92
2022-08-26T14:24:30.902Z,23.13
2022-08-26T14:26:59.649Z,26.85
2022-08-26T14:29:29.671Z,12.82
2022-08-26T14:32:01.028Z,13.60
2022-08-26T14:34:30.573Z,17.55
2022-08-26T14:36:59.404Z,16.40
2022-08-26T14:39:38.393Z,15.20
2022-08-26T14:42:08.283Z,16.27
2022-08-26T14:44:37.587Z,18.75
2022-08-26T14:47:08.024Z,13.27
2022-08-26T14:49:37.045Z,15.70
2022-08-26T14:52:05.850Z,11.48
2022-08-26T14:54:34.931Z,21.70
2022-08-26T14:57:07.695Z,18.48
2022-08-26T14:59:39.930Z,11.32
2022-08-26T15:02:13.991Z,16.10
2022-08-26T15:04:56.412Z,18.98
2022-08-26T15:07:25.049Z,15.85
2022-08-26T15:09:53.661Z,11.40
2022-08-26T15:12:23.124Z,17.67
2022-08-26T15:14:51.725Z,18.35
2022-08-26T15:17:20.349Z,16.92
2022-08-26T15:19:49.012Z,13.93
2022-08-26T15:22:17.657Z,15.55
2022-08-26T15:24:46.272Z,27.58
2022-08-26T15:27:14.985Z,11.85
2022-08-26T15:29:45.111Z,15.27
2022-08-26T15:32:13.924Z,11.90
2022-08-26T15:34:42.578Z,15.80
2022-08-26T15:37:11.579Z,18.98
2022-08-26T15:39:40.515Z,9.07
2022-08-26T15:42:09.319Z,15.80
2022-08-26T15:44:38.017Z,11.00
2022-08-26T15:47:07.193Z,15.73
2022-08-26T15:49:36.189Z,15.50
2022-08-26T15:52:05.593Z,12.15
2022-08-26T15:54:34.224Z,20.38
2022-08-26T15:57:07.138Z,14.43
2022-08-26T15:59:38.426Z,21.17
2022-08-26T16:02:06.869Z,18.00
2022-08-26T16:04:35.534Z,16.15
2022-08-26T16:07:05.662Z,15.13
2022-08-26T16:09:34.079Z,16.33
2022-08-26T16:12:02.757Z,28.10
2022-08-26T16:14:31.514Z,19.27
2022-08-26T16:16:59.911Z,17.48
2022-08-26T16:19:28.530Z,13.25
2022-08-26T16:21:57.150Z,15.50
2022-08-26T16:24:30.254Z,20.88
2022-08-26T16:26:59.232Z,15.95
2022-08-26T16:29:28.476Z,16.27
2022-08-26T16:31:57.150Z,21.38
2022-08-26T16:34:26.053Z,12.35
2022-08-26T16:36:54.807Z,13.95
2022-08-26T16:39:23.380Z,11.98
2022-08-26T16:41:52.084Z,16.20
2022-08-26T16:44:20.792Z,19.85
2022-08-26T16:46:49.679Z,14.50
2022-08-26T16:49:19.131Z,24.38
2022-08-26T16:51:48.295Z,12.55
2022-08-26T16:54:16.276Z,17.60
2022-08-26T16:56:44.977Z,24.40
2022-08-26T16:59:13.789Z,19.17
2022-08-26T17:01:42.456Z,21.58
2022-08-26T17:04:11.120Z,23.10
2022-08-26T17:06:39.837Z,23.65
2022-08-26T17:09:09.182Z,15.27
2022-08-26T17:11:37.840Z,13.70
2022-08-26T17:14:07.496Z,13.77
2022-08-26T17:16:36.317Z,16.05
2022-08-26T17:19:06.364Z,16.10
2022-08-26T17:21:36.731Z,27.90
2022-08-26T17:24:07.295Z,21.42
2022-08-26T17:26:36.334Z,6.22
2022-08-26T17:29:06.015Z,13.05
2022-08-26T17:31:36.316Z,15.23
2022-08-26T17:34:05.271Z,12.15
2022-08-26T17:36:33.892Z,15.43
2022-08-26T17:39:02.974Z,14.25
2022-08-26T17:41:31.677Z,11.98
2022-08-26T17:44:00.315Z,12.88
2022-08-26T17:46:29.412Z,11.80
2022-08-26T17:48:58.484Z,16.15
2022-08-26T17:51:26.943Z,23.05
2022-08-26T17:53:55.405Z,13.13
2022-08-26T17:56:27.967Z,8.38
2022-08-26T17:59:02.465Z,7.65
2022-08-26T18:01:32.991Z,6.85
2022-08-26T18:04:01.813Z,16.77
2022-08-26T18:06:31.832Z,12.25
2022-08-26T18:09:01.364Z,9.73
2022-08-26T18:11:30.592Z,12.85
2022-08-26T18:13:59.260Z,12.10
2022-08-26T18:16:28.654Z,11.73
2022-08-26T18:18:57.431Z,15.68
2022-08-26T18:21:29.173Z,17.45
2022-08-26T18:23:57.899Z,13.45
2022-08-26T18:26:33.268Z,12.52
2022-08-26T18:29:03.149Z,10.23
2022-08-26T18:31:32.605Z,7.53
2022-08-26T18:34:03.636Z,14.70
2022-08-26T18:36:37.844Z,8.40
2022-08-26T18:39:07.639Z,13.32
2022-08-26T18:41:44.226Z,13.27
2022-08-26T18:44:14.933Z,9.02
2022-08-26T18:46:45.907Z,14.85
2022-08-26T18:49:16.955Z,19.88
2022-08-26T18:51:46.756Z,9.05
2022-08-26T18:54:15.977Z,10.82
2022-08-26T18:56:44.537Z,12.00
2022-08-26T18:59:14.198Z,19.33
2022-08-26T19:01:44.346Z,7.82
2022-08-26T19:04:15.419Z,14.13
2022-08-26T19:06:48.758Z,10.88
2022-08-26T19:09:18.485Z,13.82
2022-08-26T19:11:47.975Z,9.23
2022-08-26T19:14:18.601Z,9.50
2022-08-26T19:16:48.931Z,8.95
2022-08-26T19:19:18.234Z,14.43
2022-08-26T19:21:48.392Z,17.13
2022-08-26T19:24:19.416Z,8.80
2022-08-26T19:26:57.438Z,11.45
2022-08-26T19:29:29.054Z,6.38
2022-08-26T19:31:58.109Z,8.20
2022-08-26T19:34:27.200Z,9.88
2022-08-26T19:36:58.326Z,11.05
2022-08-26T19:39:28.216Z,8.33
2022-08-26T19:41:56.257Z,11.50
2022-08-26T19:44:43.855Z,6.20
2022-08-26T19:47:14.033Z,10.98
2022-08-26T19:49:42.474Z,12.55
2022-08-26T19:52:12.794Z,10.68
2022-08-26T19:54:41.847Z,8.57
2022-08-26T19:57:11.708Z,11.60
2022-08-26T19:59:41.640Z,11.38
2022-08-26T20:02:11.422Z,10.50
2022-08-26T20:04:40.663Z,7.55
2022-08-26T20:07:12.035Z,22.60
2022-08-26T20:09:41.784Z,7.15
2022-08-26T20:12:11.077Z,8.15
2022-08-26T20:14:40.024Z,7.97
2022-08-26T20:17:08.766Z,9.45
2022-08-26T20:19:56.121Z,8.93
2022-08-26T20:22:25.076Z,7.75
2022-08-26T20:24:53.936Z,13.02
2022-08-26T20:27:34.717Z,9.48
2022-08-26T20:30:09.157Z,12.23
2022-08-26T20:32:39.812Z,13.68
2022-08-26T20:35:11.428Z,15.38
2022-08-26T20:37:40.619Z,11.15
2022-08-26T20:40:10.387Z,10.25
2022-08-26T20:42:39.097Z,11.60
2022-08-26T20:45:09.016Z,13.25
2022-08-26T20:47:38.041Z,13.13
2022-08-26T20:50:09.407Z,9.05
2022-08-26T20:52:38.070Z,21.13
2022-08-26T20:55:07.311Z,13.15
2022-08-26T20:57:36.065Z,10.30
2022-08-26T21:00:06.423Z,11.73
2022-08-26T21:02:35.959Z,9.95
2022-08-26T21:05:05.256Z,22.20
2022-08-26T21:07:33.767Z,22.30
2022-08-26T21:10:02.717Z,20.08
2022-08-26T21:12:32.351Z,13.38
2022-08-26T21:15:01.528Z,9.48
2022-08-26T21:17:30.615Z,10.88
2022-08-26T21:19:59.386Z,12.93
2022-08-26T21:22:27.955Z,8.68
2022-08-26T21:24:56.764Z,10.13
2022-08-26T21:27:26.633Z,11.20
2022-08-26T21:29:59.644Z,13.70
2022-08-26T21:32:28.088Z,12.82
2022-08-26T21:35:01.142Z,22.50
2022-08-26T21:37:30.175Z,16.70
2022-08-26T21:40:00.276Z,8.32
2022-08-26T21:42:29.458Z,19.35
2022-08-26T21:44:58.768Z,9.95
2022-08-26T21:47:28.271Z,15.27
2022-08-26T21:49:57.104Z,16.02
2022-08-26T21:52:26.109Z,55.65
2022-08-26T21:55:00.065Z,30.83
2022-08-26T21:57:30.197Z,17.63
2022-08-26T21:59:59.027Z,27.50
2022-08-26T22:02:27.674Z,10.43
2022-08-26T22:04:57.719Z,13.23
2022-08-26T22:07:26.411Z,22.15
2022-08-26T22:09:55.035Z,11.55
2022-08-26T22:12:23.764Z,14.20
2022-08-26T22:14:52.408Z,11.88
2022-08-26T22:17:21.017Z,12.27
2022-08-26T22:19:49.706Z,9.68
2022-08-26T22:22:18.821Z,16.02
2022-08-26T22:24:47.419Z,13.02
2022-08-26T22:27:16.188Z,15.90
2022-08-26T22:29:45.054Z,10.43
2022-08-26T22:32:13.794Z,9.48
2022-08-26T22:34:43.361Z,13.77
2022-08-26T22:37:13.078Z,12.05
2022-08-26T22:39:41.765Z,15.23
2022-08-26T22:42:10.584Z,13.10
2022-08-26T22:44:39.288Z,13.75
2022-08-26T22:47:08.453Z,21.73
2022-08-26T22:49:37.284Z,10.80
2022-08-26T22:52:05.950Z,34.65
2022-08-26T22:54:34.810Z,11.43
2022-08-26T22:57:03.446Z,18.77
2022-08-26T22:59:32.066Z,12.32
2022-08-26T23:02:00.725Z,7.63
2022-08-26T23:04:29.118Z,13.13
2022-08-26T23:06:57.772Z,13.73
2022-08-26T23:09:26.408Z,9.30
2022-08-26T23:11:57.467Z,13.95
2022-08-26T23:14:27.039Z,18.88
2022-08-26T23:16:55.690Z,28.67
2022-08-26T23:19:25.084Z,25.20
2022-08-26T23:21:53.913Z,18.90
2022-08-26T23:24:22.748Z,16.33
2022-08-26T23:26:51.513Z,15.38
2022-08-26T23:29:20.254Z,10.10
2022-08-26T23:31:48.958Z,15.00
2022-08-26T23:34:35.902Z,15.02
2022-08-26T23:37:06.725Z,10.23
2022-08-26T23:39:35.523Z,9.48
2022-08-26T23:42:04.589Z,9.50
2022-08-26T23:44:33.715Z,15.88
2022-08-26T23:47:02.972Z,9.57
2022-08-26T23:49:31.969Z,15.63
2022-08-26T23:52:20.243Z,8.05
2022-08-26T23:54:50.016Z,12.82
2022-08-26T23:57:19.924Z,38.33
2022-08-26T23:59:49.850Z,14.75
